sensor_id;sensor_type;location;lat;lon;timestamp;P1;durP1;ratioP1;P2;durP2;ratioP2
66546;SDS011;53400;50.364;14.874;2023-01-04T00:01:15;21.65;;;12.27;;
66546;SDS011;53400;50.364;14.874;2023-01-04T00:03:46;23.15;;;12.25;;
66546;SDS011;53400;50.364;14.874;2023-01-04T00:06:13;19.05;;;11.10;;
66546;SDS011;53400;50.364;14.874;2023-01-04T00:08:40;20.55;;;12.10;;
66546;SDS011;53400;50.364;14.874;2023-01-04T00:11:09;25.33;;;15.68;;
66546;SDS011;53400;50.364;14.874;2023-01-04T00:13:37;24.65;;;13.55;;
66546;SDS011;53400;50.364;14.874;2023-01-04T00:16:04;23.40;;;13.93;;
66546;SDS011;53400;50.364;14.874;2023-01-04T00:18:32;19.77;;;11.10;;
66546;SDS011;53400;50.364;14.874;2023-01-04T00:21:04;24.50;;;13.18;;
66546;SDS011;53400;50.364;14.874;2023-01-04T00:23:32;22.90;;;12.82;;
66546;SDS011;53400;50.364;14.874;2023-01-04T00:25:57;20.13;;;11.90;;
66546;SDS011;53400;50.364;14.874;2023-01-04T00:28:25;22.92;;;12.48;;
66546;SDS011;53400;50.364;14.874;2023-01-04T00:30:51;20.23;;;12.00;;
66546;SDS011;53400;50.364;14.874;2023-01-04T00:33:17;20.00;;;12.35;;
66546;SDS011;53400;50.364;14.874;2023-01-04T00:35:42;24.23;;;12.55;;
66546;SDS011;53400;50.364;14.874;2023-01-04T00:38:08;21.95;;;12.43;;
66546;SDS011;53400;50.364;14.874;2023-01-04T00:40:34;20.77;;;12.27;;
66546;SDS011;53400;50.364;14.874;2023-01-04T00:43:00;21.73;;;13.07;;
66546;SDS011;53400;50.364;14.874;2023-01-04T00:45:27;25.65;;;14.57;;
66546;SDS011;53400;50.364;14.874;2023-01-04T00:47:53;27.85;;;15.63;;
66546;SDS011;53400;50.364;14.874;2023-01-04T00:50:19;22.73;;;13.13;;
66546;SDS011;53400;50.364;14.874;2023-01-04T00:52:48;23.58;;;13.73;;
66546;SDS011;53400;50.364;14.874;2023-01-04T00:55:14;25.65;;;15.15;;
66546;SDS011;53400;50.364;14.874;2023-01-04T00:57:40;26.15;;;14.23;;
66546;SDS011;53400;50.364;14.874;2023-01-04T01:00:06;32.08;;;17.10;;
66546;SDS011;53400;50.364;14.874;2023-01-04T01:02:34;29.70;;;17.48;;
66546;SDS011;53400;50.364;14.874;2023-01-04T01:05:00;26.80;;;17.60;;
66546;SDS011;53400;50.364;14.874;2023-01-04T01:07:26;31.42;;;18.27;;
66546;SDS011;53400;50.364;14.874;2023-01-04T01:09:51;30.65;;;17.50;;
66546;SDS011;53400;50.364;14.874;2023-01-04T01:12:17;30.75;;;18.08;;
66546;SDS011;53400;50.364;14.874;2023-01-04T01:14:43;27.35;;;17.08;;
66546;SDS011;53400;50.364;14.874;2023-01-04T01:17:09;31.67;;;18.20;;
66546;SDS011;53400;50.364;14.874;2023-01-04T01:19:36;28.77;;;18.05;;
66546;SDS011;53400;50.364;14.874;2023-01-04T01:22:02;28.23;;;17.20;;
66546;SDS011;53400;50.364;14.874;2023-01-04T01:24:28;30.98;;;16.58;;
66546;SDS011;53400;50.364;14.874;2023-01-04T01:26:54;30.38;;;17.23;;
66546;SDS011;53400;50.364;14.874;2023-01-04T01:29:20;32.13;;;18.23;;
66546;SDS011;53400;50.364;14.874;2023-01-04T01:31:46;31.02;;;17.95;;
66546;SDS011;53400;50.364;14.874;2023-01-04T01:34:12;31.30;;;17.52;;
66546;SDS011;53400;50.364;14.874;2023-01-04T01:36:39;27.95;;;18.45;;
66546;SDS011;53400;50.364;14.874;2023-01-04T01:39:05;28.02;;;15.45;;
66546;SDS011;53400;50.364;14.874;2023-01-04T01:41:31;24.83;;;15.60;;
66546;SDS011;53400;50.364;14.874;2023-01-04T01:43:59;29.55;;;15.63;;
66546;SDS011;53400;50.364;14.874;2023-01-04T01:46:28;26.40;;;14.73;;
66546;SDS011;53400;50.364;14.874;2023-01-04T01:49:03;29.38;;;16.33;;
66546;SDS011;53400;50.364;14.874;2023-01-04T01:51:33;26.17;;;15.40;;
66546;SDS011;53400;50.364;14.874;2023-01-04T01:54:02;29.48;;;16.02;;
66546;SDS011;53400;50.364;14.874;2023-01-04T01:56:32;31.45;;;17.70;;
66546;SDS011;53400;50.364;14.874;2023-01-04T01:59:01;25.05;;;15.35;;
66546;SDS011;53400;50.364;14.874;2023-01-04T02:01:28;28.02;;;16.63;;
66546;SDS011;53400;50.364;14.874;2023-01-04T02:03:54;27.95;;;15.65;;
66546;SDS011;53400;50.364;14.874;2023-01-04T02:06:21;27.02;;;14.73;;
66546;SDS011;53400;50.364;14.874;2023-01-04T02:08:52;25.77;;;15.45;;
66546;SDS011;53400;50.364;14.874;2023-01-04T02:11:21;29.98;;;16.67;;
66546;SDS011;53400;50.364;14.874;2023-01-04T02:13:47;27.77;;;16.58;;
66546;SDS011;53400;50.364;14.874;2023-01-04T02:16:36;28.30;;;15.80;;
66546;SDS011;53400;50.364;14.874;2023-01-04T02:19:16;24.85;;;15.70;;
66546;SDS011;53400;50.364;14.874;2023-01-04T02:22:02;28.67;;;15.82;;
66546;SDS011;53400;50.364;14.874;2023-01-04T02:24:50;27.23;;;15.13;;
66546;SDS011;53400;50.364;14.874;2023-01-04T02:27:40;25.35;;;13.93;;
66546;SDS011;53400;50.364;14.874;2023-01-04T02:30:31;28.20;;;15.38;;
66546;SDS011;53400;50.364;14.874;2023-01-04T02:33:17;25.88;;;13.75;;
66546;SDS011;53400;50.364;14.874;2023-01-04T02:35:55;23.95;;;14.77;;
66546;SDS011;53400;50.364;14.874;2023-01-04T02:38:27;25.85;;;15.32;;
66546;SDS011;53400;50.364;14.874;2023-01-04T02:41:02;25.17;;;14.82;;
66546;SDS011;53400;50.364;14.874;2023-01-04T02:43:34;24.15;;;14.65;;
66546;SDS011;53400;50.364;14.874;2023-01-04T02:46:28;23.25;;;13.75;;
66546;SDS011;53400;50.364;14.874;2023-01-04T02:48:59;22.20;;;13.88;;
66546;SDS011;53400;50.364;14.874;2023-01-04T02:51:43;25.05;;;14.65;;
66546;SDS011;53400;50.364;14.874;2023-01-04T02:54:10;28.20;;;14.77;;
66546;SDS011;53400;50.364;14.874;2023-01-04T02:56:44;26.50;;;15.60;;
66546;SDS011;53400;50.364;14.874;2023-01-04T02:59:25;30.98;;;14.50;;
66546;SDS011;53400;50.364;14.874;2023-01-04T03:02:01;25.05;;;13.43;;
66546;SDS011;53400;50.364;14.874;2023-01-04T03:05:01;24.23;;;13.68;;
66546;SDS011;53400;50.364;14.874;2023-01-04T03:07:54;30.25;;;15.90;;
66546;SDS011;53400;50.364;14.874;2023-01-04T03:10:29;28.67;;;16.33;;
66546;SDS011;53400;50.364;14.874;2023-01-04T03:13:04;29.83;;;16.38;;
66546;SDS011;53400;50.364;14.874;2023-01-04T03:15:36;28.63;;;15.80;;
66546;SDS011;53400;50.364;14.874;2023-01-04T03:18:07;27.15;;;15.40;;
66546;SDS011;53400;50.364;14.874;2023-01-04T03:23:07;24.02;;;14.43;;
66546;SDS011;53400;50.364;14.874;2023-01-04T03:25:55;27.90;;;15.50;;
66546;SDS011;53400;50.364;14.874;2023-01-04T03:28:43;27.70;;;15.20;;
66546;SDS011;53400;50.364;14.874;2023-01-04T03:31:29;26.35;;;14.35;;
66546;SDS011;53400;50.364;14.874;2023-01-04T03:34:18;28.55;;;14.38;;
66546;SDS011;53400;50.364;14.874;2023-01-04T03:37:06;30.08;;;15.93;;
66546;SDS011;53400;50.364;14.874;2023-01-04T03:39:41;27.13;;;15.38;;
66546;SDS011;53400;50.364;14.874;2023-01-04T03:42:36;26.75;;;15.20;;
66546;SDS011;53400;50.364;14.874;2023-01-04T03:45:28;24.40;;;14.30;;
66546;SDS011;53400;50.364;14.874;2023-01-04T03:48:15;29.80;;;15.40;;
66546;SDS011;53400;50.364;14.874;2023-01-04T03:50:59;27.67;;;14.85;;
66546;SDS011;53400;50.364;14.874;2023-01-04T03:53:30;29.15;;;16.08;;
66546;SDS011;53400;50.364;14.874;2023-01-04T03:55:59;29.85;;;16.27;;
66546;SDS011;53400;50.364;14.874;2023-01-04T03:58:27;30.00;;;17.08;;
66546;SDS011;53400;50.364;14.874;2023-01-04T04:00:53;35.80;;;18.77;;
66546;SDS011;53400;50.364;14.874;2023-01-04T04:03:28;30.90;;;18.65;;
66546;SDS011;53400;50.364;14.874;2023-01-04T04:06:13;31.63;;;16.98;;
66546;SDS011;53400;50.364;14.874;2023-01-04T04:09:00;31.00;;;18.20;;
66546;SDS011;53400;50.364;14.874;2023-01-04T04:11:26;34.30;;;19.92;;
66546;SDS011;53400;50.364;14.874;2023-01-04T04:13:55;34.53;;;20.50;;
66546;SDS011;53400;50.364;14.874;2023-01-04T04:16:21;31.55;;;19.52;;
66546;SDS011;53400;50.364;14.874;2023-01-04T04:18:47;35.17;;;19.13;;
66546;SDS011;53400;50.364;14.874;2023-01-04T04:21:13;35.17;;;20.70;;
66546;SDS011;53400;50.364;14.874;2023-01-04T04:23:39;35.78;;;19.98;;
66546;SDS011;53400;50.364;14.874;2023-01-04T04:26:06;30.67;;;18.25;;
66546;SDS011;53400;50.364;14.874;2023-01-04T04:28:32;31.30;;;19.52;;
66546;SDS011;53400;50.364;14.874;2023-01-04T04:30:58;33.08;;;19.88;;
66546;SDS011;53400;50.364;14.874;2023-01-04T04:33:24;33.88;;;19.42;;
66546;SDS011;53400;50.364;14.874;2023-01-04T04:35:50;36.58;;;20.77;;
66546;SDS011;53400;50.364;14.874;2023-01-04T04:38:16;35.70;;;20.75;;
66546;SDS011;53400;50.364;14.874;2023-01-04T04:40:42;34.20;;;20.02;;
66546;SDS011;53400;50.364;14.874;2023-01-04T04:43:29;34.15;;;20.15;;
66546;SDS011;53400;50.364;14.874;2023-01-04T04:45:54;29.75;;;16.60;;
66546;SDS011;53400;50.364;14.874;2023-01-04T04:48:20;38.45;;;21.73;;
66546;SDS011;53400;50.364;14.874;2023-01-04T04:50:46;39.25;;;21.33;;
66546;SDS011;53400;50.364;14.874;2023-01-04T04:53:12;38.35;;;21.30;;
66546;SDS011;53400;50.364;14.874;2023-01-04T04:55:38;33.42;;;19.52;;
66546;SDS011;53400;50.364;14.874;2023-01-04T04:58:04;32.47;;;19.45;;
66546;SDS011;53400;50.364;14.874;2023-01-04T05:00:31;36.38;;;20.77;;
66546;SDS011;53400;50.364;14.874;2023-01-04T05:02:57;32.65;;;18.27;;
66546;SDS011;53400;50.364;14.874;2023-01-04T05:05:23;33.63;;;19.35;;
66546;SDS011;53400;50.364;14.874;2023-01-04T05:07:50;32.05;;;17.77;;
66546;SDS011;53400;50.364;14.874;2023-01-04T05:10:15;34.30;;;16.20;;
66546;SDS011;53400;50.364;14.874;2023-01-04T05:12:42;35.13;;;20.15;;
66546;SDS011;53400;50.364;14.874;2023-01-04T05:15:26;31.27;;;18.13;;
66546;SDS011;53400;50.364;14.874;2023-01-04T05:17:55;34.95;;;19.80;;
66546;SDS011;53400;50.364;14.874;2023-01-04T05:20:21;35.70;;;19.20;;
66546;SDS011;53400;50.364;14.874;2023-01-04T05:22:47;42.17;;;21.33;;
66546;SDS011;53400;50.364;14.874;2023-01-04T05:25:12;34.72;;;20.00;;
66546;SDS011;53400;50.364;14.874;2023-01-04T05:27:39;38.35;;;21.67;;
66546;SDS011;53400;50.364;14.874;2023-01-04T05:30:05;36.30;;;20.33;;
66546;SDS011;53400;50.364;14.874;2023-01-04T05:32:50;36.28;;;20.05;;
66546;SDS011;53400;50.364;14.874;2023-01-04T05:35:17;36.58;;;19.98;;
66546;SDS011;53400;50.364;14.874;2023-01-04T05:37:43;39.22;;;20.42;;
66546;SDS011;53400;50.364;14.874;2023-01-04T05:40:09;34.47;;;19.40;;
66546;SDS011;53400;50.364;14.874;2023-01-04T05:42:35;36.58;;;19.77;;
66546;SDS011;53400;50.364;14.874;2023-01-04T05:45:01;34.42;;;20.83;;
66546;SDS011;53400;50.364;14.874;2023-01-04T05:47:27;35.78;;;20.38;;
66546;SDS011;53400;50.364;14.874;2023-01-04T05:49:54;38.22;;;20.98;;
66546;SDS011;53400;50.364;14.874;2023-01-04T05:52:22;37.42;;;21.45;;
66546;SDS011;53400;50.364;14.874;2023-01-04T05:54:48;33.63;;;19.02;;
66546;SDS011;53400;50.364;14.874;2023-01-04T05:57:14;36.70;;;18.42;;
66546;SDS011;53400;50.364;14.874;2023-01-04T05:59:40;30.48;;;17.60;;
66546;SDS011;53400;50.364;14.874;2023-01-04T06:02:09;32.78;;;18.00;;
66546;SDS011;53400;50.364;14.874;2023-01-04T06:04:39;31.60;;;16.88;;
66546;SDS011;53400;50.364;14.874;2023-01-04T06:07:05;36.90;;;18.25;;
66546;SDS011;53400;50.364;14.874;2023-01-04T06:09:32;30.80;;;17.33;;
66546;SDS011;53400;50.364;14.874;2023-01-04T06:11:58;32.80;;;18.13;;
66546;SDS011;53400;50.364;14.874;2023-01-04T06:14:24;33.30;;;17.92;;
66546;SDS011;53400;50.364;14.874;2023-01-04T06:16:50;33.15;;;18.25;;
66546;SDS011;53400;50.364;14.874;2023-01-04T06:19:15;32.17;;;16.35;;
66546;SDS011;53400;50.364;14.874;2023-01-04T06:21:41;27.17;;;15.18;;
66546;SDS011;53400;50.364;14.874;2023-01-04T06:24:08;27.05;;;14.63;;
66546;SDS011;53400;50.364;14.874;2023-01-04T06:26:36;31.88;;;17.27;;
66546;SDS011;53400;50.364;14.874;2023-01-04T06:29:02;32.85;;;17.48;;
66546;SDS011;53400;50.364;14.874;2023-01-04T06:31:28;34.22;;;17.60;;
66546;SDS011;53400;50.364;14.874;2023-01-04T06:33:54;35.90;;;18.48;;
66546;SDS011;53400;50.364;14.874;2023-01-04T06:36:21;34.72;;;20.05;;
66546;SDS011;53400;50.364;14.874;2023-01-04T06:38:47;35.58;;;20.30;;
66546;SDS011;53400;50.364;14.874;2023-01-04T06:41:13;36.20;;;19.02;;
66546;SDS011;53400;50.364;14.874;2023-01-04T06:43:41;34.22;;;20.35;;
66546;SDS011;53400;50.364;14.874;2023-01-04T06:46:07;36.70;;;19.02;;
66546;SDS011;53400;50.364;14.874;2023-01-04T06:48:33;37.35;;;19.90;;
66546;SDS011;53400;50.364;14.874;2023-01-04T06:50:59;32.53;;;16.92;;
66546;SDS011;53400;50.364;14.874;2023-01-04T06:53:25;36.40;;;19.73;;
66546;SDS011;53400;50.364;14.874;2023-01-04T06:55:51;28.90;;;15.75;;
66546;SDS011;53400;50.364;14.874;2023-01-04T06:58:16;32.75;;;17.50;;
66546;SDS011;53400;50.364;14.874;2023-01-04T07:00:44;30.00;;;15.48;;
66546;SDS011;53400;50.364;14.874;2023-01-04T07:03:11;63.22;;;56.25;;
66546;SDS011;53400;50.364;14.874;2023-01-04T07:05:37;33.55;;;18.35;;
66546;SDS011;53400;50.364;14.874;2023-01-04T07:08:03;34.05;;;18.35;;
66546;SDS011;53400;50.364;14.874;2023-01-04T07:10:29;31.48;;;17.90;;
66546;SDS011;53400;50.364;14.874;2023-01-04T07:12:55;27.45;;;14.18;;
66546;SDS011;53400;50.364;14.874;2023-01-04T07:15:21;29.65;;;16.00;;
66546;SDS011;53400;50.364;14.874;2023-01-04T07:17:48;37.08;;;18.58;;
66546;SDS011;53400;50.364;14.874;2023-01-04T07:20:15;31.10;;;17.10;;
66546;SDS011;53400;50.364;14.874;2023-01-04T07:22:41;37.95;;;19.35;;
66546;SDS011;53400;50.364;14.874;2023-01-04T07:25:08;33.55;;;17.75;;
66546;SDS011;53400;50.364;14.874;2023-01-04T07:27:33;25.45;;;14.23;;
66546;SDS011;53400;50.364;14.874;2023-01-04T07:30:00;29.02;;;14.50;;
66546;SDS011;53400;50.364;14.874;2023-01-04T07:32:26;35.47;;;19.10;;
66546;SDS011;53400;50.364;14.874;2023-01-04T07:34:53;36.92;;;18.77;;
66546;SDS011;53400;50.364;14.874;2023-01-04T07:37:19;30.15;;;16.42;;
66546;SDS011;53400;50.364;14.874;2023-01-04T07:39:45;40.88;;;22.92;;
66546;SDS011;53400;50.364;14.874;2023-01-04T07:42:12;33.88;;;19.90;;
66546;SDS011;53400;50.364;14.874;2023-01-04T07:44:39;39.03;;;22.92;;
66546;SDS011;53400;50.364;14.874;2023-01-04T07:47:05;38.30;;;21.25;;
66546;SDS011;53400;50.364;14.874;2023-01-04T07:49:31;31.35;;;16.48;;
66546;SDS011;53400;50.364;14.874;2023-01-04T07:51:58;34.40;;;20.55;;
66546;SDS011;53400;50.364;14.874;2023-01-04T07:54:24;32.67;;;18.80;;
66546;SDS011;53400;50.364;14.874;2023-01-04T07:56:50;28.55;;;16.27;;
66546;SDS011;53400;50.364;14.874;2023-01-04T07:59:17;33.10;;;17.75;;
66546;SDS011;53400;50.364;14.874;2023-01-04T08:01:45;34.42;;;18.70;;
66546;SDS011;53400;50.364;14.874;2023-01-04T08:04:13;32.50;;;18.20;;
66546;SDS011;53400;50.364;14.874;2023-01-04T08:06:40;36.40;;;21.38;;
66546;SDS011;53400;50.364;14.874;2023-01-04T08:09:09;34.75;;;19.98;;
66546;SDS011;53400;50.364;14.874;2023-01-04T08:11:36;35.10;;;19.05;;
66546;SDS011;53400;50.364;14.874;2023-01-04T08:14:03;31.95;;;16.92;;
66546;SDS011;53400;50.364;14.874;2023-01-04T08:16:29;35.88;;;20.02;;
66546;SDS011;53400;50.364;14.874;2023-01-04T08:18:58;37.35;;;19.42;;
66546;SDS011;53400;50.364;14.874;2023-01-04T08:21:25;30.98;;;15.32;;
66546;SDS011;53400;50.364;14.874;2023-01-04T08:23:53;37.53;;;21.48;;
66546;SDS011;53400;50.364;14.874;2023-01-04T08:26:21;35.28;;;19.27;;
66546;SDS011;53400;50.364;14.874;2023-01-04T08:28:47;33.00;;;18.63;;
66546;SDS011;53400;50.364;14.874;2023-01-04T08:31:15;35.22;;;19.38;;
66546;SDS011;53400;50.364;14.874;2023-01-04T08:33:43;29.63;;;15.40;;
66546;SDS011;53400;50.364;14.874;2023-01-04T08:36:10;30.70;;;19.05;;
66546;SDS011;53400;50.364;14.874;2023-01-04T08:38:38;33.03;;;19.88;;
66546;SDS011;53400;50.364;14.874;2023-01-04T08:41:04;33.58;;;18.33;;
66546;SDS011;53400;50.364;14.874;2023-01-04T08:43:32;34.40;;;18.52;;
66546;SDS011;53400;50.364;14.874;2023-01-04T08:45:58;36.65;;;19.15;;
66546;SDS011;53400;50.364;14.874;2023-01-04T08:48:24;30.88;;;17.42;;
66546;SDS011;53400;50.364;14.874;2023-01-04T08:50:49;28.98;;;17.00;;
66546;SDS011;53400;50.364;14.874;2023-01-04T08:53:15;32.70;;;18.05;;
66546;SDS011;53400;50.364;14.874;2023-01-04T08:55:47;29.00;;;16.58;;
66546;SDS011;53400;50.364;14.874;2023-01-04T08:58:14;29.88;;;16.98;;
66546;SDS011;53400;50.364;14.874;2023-01-04T09:00:41;26.08;;;14.93;;
66546;SDS011;53400;50.364;14.874;2023-01-04T09:03:08;23.70;;;14.20;;
66546;SDS011;53400;50.364;14.874;2023-01-04T09:05:33;30.25;;;16.83;;
66546;SDS011;53400;50.364;14.874;2023-01-04T09:07:59;28.13;;;16.13;;
66546;SDS011;53400;50.364;14.874;2023-01-04T09:10:25;28.92;;;17.63;;
66546;SDS011;53400;50.364;14.874;2023-01-04T09:12:52;29.23;;;17.75;;
66546;SDS011;53400;50.364;14.874;2023-01-04T09:15:18;30.77;;;17.45;;
66546;SDS011;53400;50.364;14.874;2023-01-04T09:17:45;29.05;;;17.42;;
66546;SDS011;53400;50.364;14.874;2023-01-04T09:20:13;32.58;;;16.50;;
66546;SDS011;53400;50.364;14.874;2023-01-04T09:22:40;29.13;;;17.92;;
66546;SDS011;53400;50.364;14.874;2023-01-04T09:25:06;29.55;;;16.30;;
66546;SDS011;53400;50.364;14.874;2023-01-04T09:27:33;28.73;;;17.45;;
66546;SDS011;53400;50.364;14.874;2023-01-04T09:29:59;27.73;;;15.55;;
66546;SDS011;53400;50.364;14.874;2023-01-04T09:32:25;25.77;;;15.20;;
66546;SDS011;53400;50.364;14.874;2023-01-04T09:34:52;26.95;;;15.88;;
66546;SDS011;53400;50.364;14.874;2023-01-04T09:37:20;26.55;;;15.20;;
66546;SDS011;53400;50.364;14.874;2023-01-04T09:39:46;28.15;;;16.40;;
66546;SDS011;53400;50.364;14.874;2023-01-04T09:42:15;28.33;;;15.82;;
66546;SDS011;53400;50.364;14.874;2023-01-04T09:44:44;26.20;;;15.77;;
66546;SDS011;53400;50.364;14.874;2023-01-04T09:47:14;25.98;;;14.25;;
66546;SDS011;53400;50.364;14.874;2023-01-04T09:49:44;26.45;;;14.07;;
66546;SDS011;53400;50.364;14.874;2023-01-04T09:52:16;25.98;;;15.23;;
66546;SDS011;53400;50.364;14.874;2023-01-04T09:54:47;28.27;;;15.73;;
66546;SDS011;53400;50.364;14.874;2023-01-04T09:57:19;28.40;;;15.25;;
66546;SDS011;53400;50.364;14.874;2023-01-04T09:59:48;24.63;;;13.60;;
66546;SDS011;53400;50.364;14.874;2023-01-04T10:02:20;29.98;;;15.70;;
66546;SDS011;53400;50.364;14.874;2023-01-04T10:04:50;27.45;;;15.90;;
66546;SDS011;53400;50.364;14.874;2023-01-04T10:07:20;30.17;;;15.90;;
66546;SDS011;53400;50.364;14.874;2023-01-04T10:09:50;28.27;;;15.85;;
66546;SDS011;53400;50.364;14.874;2023-01-04T10:12:23;27.38;;;17.08;;
66546;SDS011;53400;50.364;14.874;2023-01-04T10:15:01;32.60;;;17.98;;
66546;SDS011;53400;50.364;14.874;2023-01-04T10:17:41;35.90;;;18.75;;
66546;SDS011;53400;50.364;14.874;2023-01-04T10:23:16;32.13;;;17.17;;
66546;SDS011;53400;50.364;14.874;2023-01-04T10:25:50;30.80;;;17.60;;
66546;SDS011;53400;50.364;14.874;2023-01-04T10:28:24;32.38;;;17.30;;
66546;SDS011;53400;50.364;14.874;2023-01-04T10:30:59;28.88;;;17.17;;
66546;SDS011;53400;50.364;14.874;2023-01-04T10:33:31;30.88;;;16.77;;
66546;SDS011;53400;50.364;14.874;2023-01-04T10:36:11;28.15;;;16.33;;
66546;SDS011;53400;50.364;14.874;2023-01-04T10:38:44;27.77;;;16.13;;
66546;SDS011;53400;50.364;14.874;2023-01-04T10:41:11;30.60;;;17.65;;
66546;SDS011;53400;50.364;14.874;2023-01-04T10:43:47;29.15;;;16.80;;
66546;SDS011;53400;50.364;14.874;2023-01-04T10:46:24;30.42;;;18.52;;
66546;SDS011;53400;50.364;14.874;2023-01-04T10:48:55;31.10;;;16.95;;
66546;SDS011;53400;50.364;14.874;2023-01-04T10:51:29;29.30;;;16.38;;
66546;SDS011;53400;50.364;14.874;2023-01-04T10:54:01;22.17;;;11.50;;
66546;SDS011;53400;50.364;14.874;2023-01-04T10:56:34;18.85;;;11.00;;
66546;SDS011;53400;50.364;14.874;2023-01-04T10:59:06;20.02;;;10.90;;
66546;SDS011;53400;50.364;14.874;2023-01-04T11:04:08;16.20;;;10.13;;
66546;SDS011;53400;50.364;14.874;2023-01-04T11:06:41;18.25;;;9.50;;
66546;SDS011;53400;50.364;14.874;2023-01-04T11:09:14;19.15;;;10.43;;
66546;SDS011;53400;50.364;14.874;2023-01-04T11:11:44;19.10;;;9.90;;
66546;SDS011;53400;50.364;14.874;2023-01-04T11:14:11;19.92;;;11.35;;
66546;SDS011;53400;50.364;14.874;2023-01-04T11:16:38;18.30;;;10.63;;
66546;SDS011;53400;50.364;14.874;2023-01-04T11:19:08;19.38;;;11.23;;
66546;SDS011;53400;50.364;14.874;2023-01-04T11:21:36;20.58;;;11.65;;
66546;SDS011;53400;50.364;14.874;2023-01-04T11:24:05;15.75;;;8.60;;
66546;SDS011;53400;50.364;14.874;2023-01-04T11:26:34;22.13;;;11.43;;
66546;SDS011;53400;50.364;14.874;2023-01-04T11:29:12;18.77;;;10.57;;
66546;SDS011;53400;50.364;14.874;2023-01-04T11:31:52;23.98;;;11.73;;
66546;SDS011;53400;50.364;14.874;2023-01-04T11:34:35;20.58;;;10.93;;
66546;SDS011;53400;50.364;14.874;2023-01-04T11:37:20;18.27;;;10.32;;
66546;SDS011;53400;50.364;14.874;2023-01-04T11:39:49;17.92;;;10.55;;
66546;SDS011;53400;50.364;14.874;2023-01-04T11:42:18;17.88;;;9.98;;
66546;SDS011;53400;50.364;14.874;2023-01-04T11:44:56;20.65;;;10.75;;
66546;SDS011;53400;50.364;14.874;2023-01-04T11:47:23;18.55;;;10.70;;
66546;SDS011;53400;50.364;14.874;2023-01-04T11:49:50;20.33;;;10.98;;
66546;SDS011;53400;50.364;14.874;2023-01-04T11:52:29;18.95;;;11.18;;
66546;SDS011;53400;50.364;14.874;2023-01-04T11:55:11;22.83;;;11.23;;
66546;SDS011;53400;50.364;14.874;2023-01-04T11:57:42;20.25;;;11.35;;
66546;SDS011;53400;50.364;14.874;2023-01-04T12:00:09;20.13;;;11.25;;
66546;SDS011;53400;50.364;14.874;2023-01-04T12:02:40;20.80;;;11.13;;
66546;SDS011;53400;50.364;14.874;2023-01-04T12:05:12;23.20;;;11.23;;
66546;SDS011;53400;50.364;14.874;2023-01-04T12:07:43;20.45;;;11.35;;
66546;SDS011;53400;50.364;14.874;2023-01-04T12:10:16;18.85;;;9.88;;
66546;SDS011;53400;50.364;14.874;2023-01-04T12:12:46;18.42;;;10.13;;
66546;SDS011;53400;50.364;14.874;2023-01-04T12:15:15;20.67;;;10.70;;
66546;SDS011;53400;50.364;14.874;2023-01-04T12:17:47;18.73;;;10.35;;
66546;SDS011;53400;50.364;14.874;2023-01-04T12:20:18;17.73;;;8.95;;
66546;SDS011;53400;50.364;14.874;2023-01-04T12:22:46;18.45;;;10.25;;
66546;SDS011;53400;50.364;14.874;2023-01-04T12:25:26;16.88;;;9.50;;
66546;SDS011;53400;50.364;14.874;2023-01-04T12:27:58;16.90;;;9.45;;
66546;SDS011;53400;50.364;14.874;2023-01-04T12:30:32;16.48;;;9.73;;
66546;SDS011;53400;50.364;14.874;2023-01-04T12:33:04;15.23;;;8.70;;
66546;SDS011;53400;50.364;14.874;2023-01-04T12:36:03;17.20;;;9.20;;
66546;SDS011;53400;50.364;14.874;2023-01-04T12:47:37;17.77;;;8.93;;
66546;SDS011;53400;50.364;14.874;2023-01-04T12:50:23;17.75;;;9.80;;
66546;SDS011;53400;50.364;14.874;2023-01-04T12:52:52;17.42;;;9.43;;
66546;SDS011;53400;50.364;14.874;2023-01-04T12:58:39;17.17;;;8.30;;
66546;SDS011;53400;50.364;14.874;2023-01-04T13:01:30;16.40;;;8.57;;
66546;SDS011;53400;50.364;14.874;2023-01-04T13:03:58;16.50;;;9.40;;
66546;SDS011;53400;50.364;14.874;2023-01-04T13:06:26;16.17;;;9.43;;
66546;SDS011;53400;50.364;14.874;2023-01-04T13:08:55;16.17;;;8.70;;
66546;SDS011;53400;50.364;14.874;2023-01-04T13:11:25;17.02;;;8.60;;
66546;SDS011;53400;50.364;14.874;2023-01-04T13:14:09;17.63;;;9.40;;
66546;SDS011;53400;50.364;14.874;2023-01-04T13:16:42;16.77;;;8.82;;
66546;SDS011;53400;50.364;14.874;2023-01-04T13:19:17;14.82;;;9.45;;
66546;SDS011;53400;50.364;14.874;2023-01-04T13:21:46;16.35;;;9.55;;
66546;SDS011;53400;50.364;14.874;2023-01-04T13:24:17;15.10;;;8.43;;
66546;SDS011;53400;50.364;14.874;2023-01-04T13:26:47;15.93;;;8.30;;
66546;SDS011;53400;50.364;14.874;2023-01-04T13:29:14;16.77;;;8.75;;
66546;SDS011;53400;50.364;14.874;2023-01-04T13:31:51;15.25;;;8.07;;
66546;SDS011;53400;50.364;14.874;2023-01-04T13:34:20;13.35;;;8.57;;
66546;SDS011;53400;50.364;14.874;2023-01-04T13:36:53;14.20;;;7.43;;
66546;SDS011;53400;50.364;14.874;2023-01-04T13:39:27;14.98;;;7.15;;
66546;SDS011;53400;50.364;14.874;2023-01-04T13:41:53;15.50;;;8.05;;
66546;SDS011;53400;50.364;14.874;2023-01-04T13:44:23;11.90;;;7.18;;
66546;SDS011;53400;50.364;14.874;2023-01-04T13:47:05;13.65;;;6.72;;
66546;SDS011;53400;50.364;14.874;2023-01-04T13:49:35;11.43;;;6.75;;
66546;SDS011;53400;50.364;14.874;2023-01-04T13:52:19;13.55;;;6.60;;
66546;SDS011;53400;50.364;14.874;2023-01-04T13:54:46;11.98;;;6.95;;
66546;SDS011;53400;50.364;14.874;2023-01-04T13:57:13;12.57;;;6.78;;
66546;SDS011;53400;50.364;14.874;2023-01-04T13:59:46;12.73;;;7.03;;
66546;SDS011;53400;50.364;14.874;2023-01-04T14:02:18;12.40;;;6.90;;
66546;SDS011;53400;50.364;14.874;2023-01-04T14:04:46;14.63;;;7.25;;
66546;SDS011;53400;50.364;14.874;2023-01-04T14:07:17;12.63;;;7.10;;
66546;SDS011;53400;50.364;14.874;2023-01-04T14:09:45;12.50;;;6.68;;
66546;SDS011;53400;50.364;14.874;2023-01-04T14:12:14;13.25;;;7.00;;
66546;SDS011;53400;50.364;14.874;2023-01-04T14:14:47;11.48;;;6.68;;
66546;SDS011;53400;50.364;14.874;2023-01-04T14:17:20;12.18;;;6.70;;
66546;SDS011;53400;50.364;14.874;2023-01-04T14:19:51;18.05;;;6.97;;
66546;SDS011;53400;50.364;14.874;2023-01-04T14:22:31;11.57;;;6.57;;
66546;SDS011;53400;50.364;14.874;2023-01-04T14:28:23;14.85;;;6.95;;
66546;SDS011;53400;50.364;14.874;2023-01-04T14:31:12;14.65;;;7.35;;
66546;SDS011;53400;50.364;14.874;2023-01-04T14:33:45;11.48;;;6.45;;
66546;SDS011;53400;50.364;14.874;2023-01-04T14:36:15;12.52;;;6.70;;
66546;SDS011;53400;50.364;14.874;2023-01-04T14:38:46;12.75;;;7.07;;
66546;SDS011;53400;50.364;14.874;2023-01-04T14:41:20;11.52;;;6.97;;
66546;SDS011;53400;50.364;14.874;2023-01-04T14:43:48;12.80;;;6.75;;
66546;SDS011;53400;50.364;14.874;2023-01-04T14:46:18;11.50;;;6.40;;
66546;SDS011;53400;50.364;14.874;2023-01-04T14:48:46;13.40;;;6.82;;
66546;SDS011;53400;50.364;14.874;2023-01-04T14:51:13;11.10;;;6.30;;
66546;SDS011;53400;50.364;14.874;2023-01-04T14:53:41;10.38;;;5.97;;